Time;durP1;ratioP1;P1;durP2;ratioP2;P2;SDS_P1;SDS_P2;PMS_P1;PMS_P2;Temp;Humidity;BMP_temperature;BMP_pressure;BME280_temperature;BME280_humidity;BME280_pressure;Samples;Min_cycle;Max_cycle;Signal;HPM_P1;HPM_P2
2021/10/26 00:01:39;;;;;;;6.75;3.80;;;11.60;72.70;;;;;;5052383;28;20059;-69
2021/10/26 00:04:07;;;;;;;10.45;4.07;;;11.70;72.50;;;;;;5052566;28;20037;-69
2021/10/26 00:06:33;;;;;;;10.10;3.55;;;11.60;75.00;;;;;;5052796;28;20461;-70
2021/10/26 00:08:58;;;;;;;5.82;3.78;;;11.70;76.80;;;;;;5052505;28;20082;-69
2021/10/26 00:11:24;;;;;;;7.80;3.78;;;11.60;68.10;;;;;;5054880;28;20017;-69
2021/10/26 00:13:50;;;;;;;11.38;3.88;;;11.60;67.60;;;;;;5056572;28;20056;-69
2021/10/26 00:16:16;;;;;;;5.43;3.17;;;11.60;67.70;;;;;;5056466;28;20029;-69
2021/10/26 00:18:42;;;;;;;7.20;3.47;;;11.50;67.30;;;;;;5056540;28;20040;-69
2021/10/26 00:21:07;;;;;;;5.97;3.50;;;11.50;67.50;;;;;;5056242;28;20125;-69
2021/10/26 00:23:33;;;;;;;6.18;3.50;;;11.50;68.10;;;;;;5056559;28;20381;-69
2021/10/26 00:25:59;;;;;;;7.15;3.75;;;11.50;67.60;;;;;;5056199;28;20087;-69
2021/10/26 00:28:24;;;;;;;8.82;4.07;;;11.40;67.50;;;;;;5056280;28;20033;-69
2021/10/26 00:30:50;;;;;;;5.97;3.30;;;11.50;67.90;;;;;;5056198;28;20029;-69
2021/10/26 00:33:16;;;;;;;7.57;3.85;;;11.50;67.90;;;;;;5056057;28;20021;-70
2021/10/26 00:35:41;;;;;;;8.85;3.70;;;11.40;67.80;;;;;;5056160;28;20063;-69
2021/10/26 00:38:07;;;;;;;6.25;3.28;;;11.50;67.50;;;;;;5055881;28;20032;-69
2021/10/26 00:40:33;;;;;;;7.28;3.75;;;11.50;67.20;;;;;;5055850;28;20025;-69
2021/10/26 00:42:59;;;;;;;7.22;4.20;;;11.40;67.70;;;;;;5055914;28;20084;-69
2021/10/26 00:45:25;;;;;;;5.40;3.15;;;11.40;67.70;;;;;;5055926;28;20025;-70
2021/10/26 00:47:51;;;;;;;5.63;3.40;;;11.40;67.20;;;;;;5055802;28;20453;-69
2021/10/26 00:50:17;;;;;;;9.40;3.80;;;11.40;63.30;;;;;;5055740;28;20021;-69
2021/10/26 00:52:45;;;;;;;7.78;4.55;;;11.40;63.70;;;;;;5055477;28;20040;-69
2021/10/26 00:55:10;;;;;;;7.05;4.20;;;11.40;64.80;;;;;;5055846;28;20446;-70
2021/10/26 00:57:37;;;;;;;8.80;5.40;;;11.40;67.20;;;;;;5054593;28;20039;-69
2021/10/26 01:00:04;;;;;;;10.93;5.05;;;11.30;62.20;;;;;;5052757;28;20024;-69
2021/10/26 01:02:30;;;;;;;8.55;5.05;;;11.30;63.30;;;;;;5052713;28;20045;-69
2021/10/26 01:04:55;;;;;;;10.00;4.70;;;11.30;63.90;;;;;;5053908;28;20053;-69
2021/10/26 01:07:21;;;;;;;8.20;4.40;;;11.30;63.70;;;;;;5055071;28;20036;-69
2021/10/26 01:09:47;;;;;;;10.60;4.35;;;11.30;64.00;;;;;;5055540;28;20033;-69
2021/10/26 01:12:13;;;;;;;8.55;4.40;;;11.30;63.90;;;;;;5055461;28;20532;-69
2021/10/26 01:14:40;;;;;;;7.93;4.35;;;11.30;64.30;;;;;;5054935;28;20029;-69
2021/10/26 01:17:08;;;;;;;7.75;3.97;;;11.30;65.40;;;;;;5055172;28;20025;-69
2021/10/26 01:19:43;;;;;;;8.77;3.90;;;11.30;66.20;;;;;;5054948;28;20487;-70
2021/10/26 01:22:09;;;;;;;6.38;3.20;;;11.30;66.20;;;;;;5053648;28;20017;-69
2021/10/26 01:24:35;;;;;;;10.15;3.55;;;11.30;65.70;;;;;;5055012;28;20033;-70
2021/10/26 01:27:01;;;;;;;6.60;3.30;;;11.40;65.60;;;;;;5054852;28;20070;-69
2021/10/26 01:29:26;;;;;;;5.03;3.15;;;11.40;64.80;;;;;;5055072;28;20116;-69
2021/10/26 01:31:52;;;;;;;5.53;3.15;;;11.40;64.80;;;;;;5054831;28;20032;-69
2021/10/26 01:34:18;;;;;;;7.13;3.30;;;11.50;62.70;;;;;;5054821;28;20025;-69
2021/10/26 01:36:44;;;;;;;7.18;3.00;;;11.50;62.30;;;;;;5054737;28;20033;-69
2021/10/26 01:39:09;;;;;;;6.68;2.83;;;11.50;62.20;;;;;;5054668;28;20025;-69
2021/10/26 01:41:35;;;;;;;7.90;2.95;;;11.50;62.00;;;;;;5054879;28;20136;-69
2021/10/26 01:44:01;;;;;;;7.90;3.63;;;11.60;61.70;;;;;;5054459;28;20040;-69
2021/10/26 01:46:27;;;;;;;7.03;3.20;;;11.60;61.60;;;;;;5054686;28;20408;-69
2021/10/26 01:48:52;;;;;;;6.28;2.85;;;11.60;61.30;;;;;;5054431;28;20029;-69
2021/10/26 01:51:18;;;;;;;7.68;2.78;;;11.60;60.70;;;;;;5054666;28;20029;-69
2021/10/26 01:53:44;;;;;;;7.57;3.20;;;11.60;60.40;;;;;;5054640;28;20029;-69
2021/10/26 01:56:09;;;;;;;5.28;3.08;;;11.60;60.40;;;;;;5054539;28;20100;-70
2021/10/26 01:58:35;;;;;;;3.75;2.45;;;11.60;60.30;;;;;;5054764;28;20063;-70
2021/10/26 02:01:01;;;;;;;4.85;2.80;;;11.60;60.00;;;;;;5054377;28;20124;-69
2021/10/26 02:03:27;;;;;;;6.65;2.80;;;11.60;59.70;;;;;;5054130;28;20504;-70
2021/10/26 02:05:53;;;;;;;7.70;2.92;;;11.60;59.70;;;;;;5054283;28;20102;-70
2021/10/26 02:08:18;;;;;;;8.50;2.75;;;11.60;60.00;;;;;;5054672;28;20514;-70
2021/10/26 02:10:44;;;;;;;6.07;2.65;;;11.60;60.10;;;;;;5054242;28;20029;-70
2021/10/26 02:13:10;;;;;;;6.43;2.63;;;11.60;60.40;;;;;;5052967;28;20032;-69
2021/10/26 02:15:36;;;;;;;5.07;2.47;;;11.60;60.10;;;;;;5053948;28;20025;-70
2021/10/26 02:18:01;;;;;;;6.15;2.92;;;11.60;59.50;;;;;;5053895;28;20033;-69
2021/10/26 02:20:27;;;;;;;5.45;2.60;;;11.60;59.70;;;;;;5052803;28;20025;-69
2021/10/26 02:22:53;;;;;;;6.75;3.15;;;11.70;60.00;;;;;;5053943;28;20078;-69
2021/10/26 02:25:18;;;;;;;5.55;3.10;;;11.60;59.70;;;;;;5054023;28;20032;-71
2021/10/26 02:27:44;;;;;;;6.07;2.80;;;11.70;59.80;;;;;;5053923;28;20027;-69
2021/10/26 02:30:10;;;;;;;6.72;2.90;;;11.70;59.90;;;;;;5053775;28;20469;-69
2021/10/26 02:32:36;;;;;;;5.63;2.80;;;11.70;60.00;;;;;;5053515;28;20074;-69
2021/10/26 02:35:01;;;;;;;5.63;2.88;;;11.70;59.80;;;;;;5053240;28;20449;-70
2021/10/26 02:37:27;;;;;;;7.88;2.88;;;11.70;59.40;;;;;;5053605;28;20028;-69
2021/10/26 02:39:53;;;;;;;6.22;3.33;;;11.70;59.00;;;;;;5053626;28;20048;-70
2021/10/26 02:42:18;;;;;;;7.20;3.40;;;11.70;59.00;;;;;;5053709;28;20074;-70
2021/10/26 02:44:44;;;;;;;6.00;3.10;;;11.80;59.10;;;;;;5053163;28;20044;-69
2021/10/26 02:47:10;;;;;;;5.30;2.80;;;11.70;59.20;;;;;;5053529;28;20032;-70
2021/10/26 02:49:35;;;;;;;6.97;3.38;;;11.80;58.90;;;;;;5053491;28;20029;-69
2021/10/26 02:52:02;;;;;;;5.35;2.97;;;11.80;57.90;;;;;;5053637;28;20131;-69
2021/10/26 02:54:28;;;;;;;5.25;3.33;;;11.80;57.60;;;;;;5053491;28;20096;-69
2021/10/26 02:56:53;;;;;;;6.10;3.17;;;11.80;57.50;;;;;;5053379;28;20057;-70
2021/10/26 02:59:19;;;;;;;6.20;3.08;;;11.80;57.10;;;;;;5053525;28;20025;-69
2021/10/26 03:01:46;;;;;;;9.68;3.50;;;11.80;56.80;;;;;;5053041;28;20451;-69
2021/10/26 03:04:12;;;;;;;7.28;3.30;;;11.80;56.80;;;;;;5053311;28;20123;-69
2021/10/26 03:06:38;;;;;;;6.40;3.50;;;11.80;57.00;;;;;;5053235;28;20104;-69
2021/10/26 03:09:03;;;;;;;5.38;3.08;;;11.80;57.30;;;;;;5053140;28;20496;-69
2021/10/26 03:11:29;;;;;;;7.80;3.38;;;11.80;57.30;;;;;;5053195;28;20467;-69
2021/10/26 03:13:55;;;;;;;7.15;3.35;;;11.90;57.10;;;;;;5052970;28;20025;-70
2021/10/26 03:16:21;;;;;;;9.13;3.80;;;11.90;57.40;;;;;;5053119;28;20048;-70
2021/10/26 03:18:46;;;;;;;7.82;3.75;;;11.90;58.00;;;;;;5053027;28;20459;-69
2021/10/26 03:21:12;;;;;;;5.28;3.40;;;11.80;58.40;;;;;;5053155;28;20025;-69
2021/10/26 03:23:38;;;;;;;7.43;3.70;;;11.80;58.90;;;;;;5052672;28;20033;-69
2021/10/26 03:26:03;;;;;;;6.85;3.70;;;11.70;59.50;;;;;;5053085;28;20052;-70
2021/10/26 03:28:29;;;;;;;12.45;3.45;;;11.70;59.90;;;;;;5052968;28;20108;-69
2021/10/26 03:30:56;;;;;;;6.80;3.67;;;11.70;60.10;;;;;;5052688;28;20028;-69
2021/10/26 03:33:23;;;;;;;6.40;3.40;;;11.70;60.00;;;;;;5052776;28;20100;-69
2021/10/26 03:35:50;;;;;;;6.45;3.20;;;11.70;59.60;;;;;;5052924;28;20467;-69
2021/10/26 03:38:16;;;;;;;5.32;3.08;;;11.70;60.10;;;;;;5052943;28;20036;-69
2021/10/26 03:40:41;;;;;;;5.30;3.20;;;11.70;60.40;;;;;;5052893;28;20392;-69
2021/10/26 03:43:07;;;;;;;4.72;3.00;;;11.70;60.20;;;;;;5052729;28;20569;-69
2021/10/26 03:45:33;;;;;;;6.93;3.25;;;11.70;60.50;;;;;;5054052;28;20033;-69
2021/10/26 03:47:58;;;;;;;6.78;3.38;;;11.70;61.00;;;;;;5057021;28;20029;-69
2021/10/26 03:50:24;;;;;;;5.65;3.55;;;11.70;61.30;;;;;;5057023;28;20025;-69
2021/10/26 03:52:49;;;;;;;8.57;3.63;;;11.70;61.80;;;;;;5056829;28;20076;-69
2021/10/26 03:55:15;;;;;;;6.43;3.65;;;11.70;61.90;;;;;;5056888;28;20036;-69
2021/10/26 03:57:41;;;;;;;6.60;3.67;;;11.70;62.00;;;;;;5056503;28;20078;-69
2021/10/26 04:00:08;;;;;;;6.18;3.47;;;11.80;62.00;;;;;;5056621;28;20036;-70
2021/10/26 04:02:38;;;;;;;13.82;3.65;;;11.70;61.80;;;;;;5056884;28;20040;-70
2021/10/26 04:05:14;;;;;;;6.68;3.55;;;11.70;62.10;;;;;;5056410;28;20033;-69
2021/10/26 04:07:55;;;;;;;5.25;3.47;;;11.70;62.40;;;;;;5056563;28;20028;-70
2021/10/26 04:10:32;;;;;;;6.20;3.38;;;11.70;62.90;;;;;;5056574;28;20032;-70
2021/10/26 04:12:59;;;;;;;7.65;4.05;;;11.70;62.80;;;;;;5056487;28;20023;-69
2021/10/26 04:15:24;;;;;;;8.65;4.10;;;11.70;63.90;;;;;;5056384;28;20037;-69
2021/10/26 04:17:50;;;;;;;8.40;3.95;;;11.70;64.00;;;;;;5054880;28;20030;-69
2021/10/26 04:20:16;;;;;;;6.40;3.60;;;11.70;64.90;;;;;;5056143;28;20040;-69
2021/10/26 04:22:41;;;;;;;7.93;3.72;;;11.70;66.00;;;;;;5056442;28;20048;-69
2021/10/26 04:25:07;;;;;;;5.75;3.58;;;11.70;66.20;;;;;;5056266;28;20068;-70
2021/10/26 04:27:33;;;;;;;7.55;4.15;;;11.60;65.60;;;;;;5056044;28;20025;-69
2021/10/26 04:29:58;;;;;;;10.65;4.50;;;11.70;66.00;;;;;;5056303;28;20431;-69
2021/10/26 04:32:24;;;;;;;6.78;3.22;;;11.70;65.80;;;;;;5056066;28;20029;-70
2021/10/26 04:34:50;;;;;;;7.15;3.55;;;11.70;66.20;;;;;;5056023;28;20032;-69
2021/10/26 04:37:17;;;;;;;7.30;3.63;;;11.70;66.40;;;;;;5056114;28;20068;-69
2021/10/26 04:39:43;;;;;;;9.68;5.20;;;11.70;66.60;;;;;;5055711;28;20029;-69
2021/10/26 04:42:09;;;;;;;7.55;5.03;;;11.60;66.70;;;;;;5055928;28;20071;-69
2021/10/26 04:44:36;;;;;;;8.25;4.50;;;11.60;66.30;;;;;;5056040;28;20094;-69
2021/10/26 04:47:03;;;;;;;7.00;3.63;;;11.60;66.10;;;;;;5054723;28;20052;-69
2021/10/26 04:49:29;;;;;;;8.32;4.13;;;11.60;66.30;;;;;;5055813;28;20094;-69
2021/10/26 04:51:54;;;;;;;8.77;3.97;;;11.60;66.80;;;;;;5055805;28;20473;-69
2021/10/26 04:54:20;;;;;;;9.57;4.20;;;11.50;66.80;;;;;;5055902;28;20025;-69
2021/10/26 04:56:46;;;;;;;12.23;4.35;;;11.50;68.50;;;;;;5055833;28;20021;-69
2021/10/26 04:59:11;;;;;;;6.65;4.03;;;11.40;68.70;;;;;;5055661;28;20024;-69
2021/10/26 05:01:37;;;;;;;7.78;4.30;;;11.40;68.70;;;;;;5055315;28;20080;-69
2021/10/26 05:04:03;;;;;;;11.07;4.22;;;11.40;69.00;;;;;;5055610;28;20073;-69
2021/10/26 05:06:29;;;;;;;9.27;4.28;;;11.40;68.70;;;;;;5055449;28;20032;-70
2021/10/26 05:08:55;;;;;;;9.95;4.15;;;11.40;68.70;;;;;;5055227;28;20025;-69
2021/10/26 05:11:21;;;;;;;9.90;3.50;;;11.40;68.90;;;;;;5055605;28;20086;-69
2021/10/26 05:13:47;;;;;;;7.57;4.30;;;11.40;69.20;;;;;;5055519;28;20032;-69
2021/10/26 05:16:13;;;;;;;9.07;3.92;;;11.30;69.20;;;;;;5055239;28;20029;-70
2021/10/26 05:18:46;;;;;;;7.82;3.47;;;11.30;68.70;;;;;;5055112;28;20488;-69
2021/10/26 05:21:16;;;;;;;9.00;4.05;;;11.30;68.40;;;;;;5055148;28;20533;-69
2021/10/26 05:23:46;;;;;;;10.60;3.97;;;11.30;68.50;;;;;;5054923;28;20036;-69
2021/10/26 05:26:12;;;;;;;6.57;3.63;;;11.40;68.40;;;;;;5055205;28;20355;-69
2021/10/26 05:28:37;;;;;;;6.43;4.05;;;11.40;67.90;;;;;;5055278;28;20100;-69
2021/10/26 05:31:03;;;;;;;8.55;3.90;;;11.40;67.60;;;;;;5055252;28;20021;-69
2021/10/26 05:33:29;;;;;;;7.97;3.85;;;11.40;67.40;;;;;;5053751;28;20048;-69
2021/10/26 05:35:55;;;;;;;7.45;4.10;;;11.40;67.30;;;;;;5054822;28;20112;-69
2021/10/26 05:38:21;;;;;;;5.93;3.58;;;11.40;66.90;;;;;;5054663;28;20525;-69
2021/10/26 05:40:46;;;;;;;7.18;4.05;;;11.40;66.70;;;;;;5054709;28;20025;-70
2021/10/26 05:43:12;;;;;;;13.00;4.60;;;11.40;66.70;;;;;;5054754;28;20035;-69
2021/10/26 05:45:44;;;;;;;10.73;4.53;;;11.40;66.90;;;;;;5054908;28;20064;-69
2021/10/26 05:48:10;;;;;;;11.57;4.57;;;11.40;66.90;;;;;;5054596;28;20024;-69
2021/10/26 05:50:36;;;;;;;8.30;4.47;;;11.40;67.20;;;;;;5054690;28;20052;-69
2021/10/26 05:53:02;;;;;;;13.48;4.30;;;11.40;68.00;;;;;;5054616;28;20072;-70
2021/10/26 05:55:27;;;;;;;8.32;4.90;;;11.40;67.80;;;;;;5054575;28;20032;-69
2021/10/26 05:57:53;;;;;;;16.15;4.55;;;11.40;67.60;;;;;;5054576;28;20393;-69
2021/10/26 06:00:19;;;;;;;10.82;4.65;;;11.30;67.50;;;;;;5054379;28;20385;-69
2021/10/26 06:02:44;;;;;;;9.70;4.35;;;11.30;68.80;;;;;;5054334;28;20025;-70
2021/10/26 06:05:11;;;;;;;12.73;3.95;;;11.30;69.50;;;;;;5054230;28;20090;-69
2021/10/26 06:07:37;;;;;;;15.60;5.28;;;11.30;69.60;;;;;;5053746;28;20108;-70
2021/10/26 06:10:04;;;;;;;16.42;4.68;;;11.30;69.30;;;;;;5053699;28;20104;-70
2021/10/26 06:12:31;;;;;;;16.60;5.00;;;11.30;68.80;;;;;;5052454;28;20017;-70
2021/10/26 06:14:57;;;;;;;23.13;5.07;;;11.30;68.80;;;;;;5053696;28;20078;-69
2021/10/26 06:17:24;;;;;;;9.88;3.92;;;11.30;68.90;;;;;;5053696;28;20544;-69
2021/10/26 06:19:50;;;;;;;11.90;4.15;;;11.30;68.70;;;;;;5053525;28;20029;-70
2021/10/26 06:22:16;;;;;;;9.55;4.18;;;11.40;68.20;;;;;;5036065;28;20029;-69
2021/10/26 06:24:45;;;;;;;13.32;4.50;;;11.40;67.50;;;;;;5025621;28;20052;-71
2021/10/26 06:27:11;;;;;;;18.45;4.90;;;11.30;67.10;;;;;;5041349;28;20029;-69
2021/10/26 06:29:36;;;;;;;11.02;3.97;;;11.40;67.10;;;;;;5033957;28;20425;-69
2021/10/26 06:32:02;;;;;;;14.98;5.15;;;11.40;67.30;;;;;;5033710;28;20021;-69
2021/10/26 06:34:28;;;;;;;12.68;5.43;;;11.40;68.20;;;;;;5033526;28;20026;-70
2021/10/26 06:36:53;;;;;;;11.93;6.55;;;11.40;68.00;;;;;;5033601;28;20100;-70
2021/10/26 06:39:21;;;;;;;14.55;6.05;;;11.40;68.50;;;;;;5033582;28;20112;-70
2021/10/26 06:41:48;;;;;;;15.13;6.00;;;11.40;68.60;;;;;;5033435;28;20017;-70
2021/10/26 06:44:14;;;;;;;13.98;6.70;;;11.40;69.10;;;;;;5034157;28;20366;-71
2021/10/26 06:46:40;;;;;;;15.32;5.30;;;11.40;69.10;;;;;;5033898;28;20075;-70
2021/10/26 06:49:06;;;;;;;12.75;5.57;;;11.40;68.60;;;;;;5033356;28;20026;-71
2021/10/26 06:51:31;;;;;;;12.30;5.40;;;11.40;67.90;;;;;;5033243;28;20025;-70
2021/10/26 06:53:58;;;;;;;11.50;4.90;;;11.50;68.00;;;;;;5033270;28;20109;-70
2021/10/26 06:56:25;;;;;;;18.05;5.43;;;11.50;67.90;;;;;;5033150;28;20025;-70
2021/10/26 06:58:51;;;;;;;12.93;4.90;;;11.50;69.30;;;;;;5032887;28;20355;-69
2021/10/26 07:01:16;;;;;;;16.20;4.97;;;11.50;70.00;;;;;;5033100;28;20056;-70
2021/10/26 07:03:42;;;;;;;12.57;5.60;;;11.50;70.50;;;;;;5032789;28;20038;-69
2021/10/26 07:06:08;;;;;;;9.05;5.35;;;11.50;70.60;;;;;;5032954;28;20017;-70
2021/10/26 07:08:35;;;;;;;8.93;5.47;;;11.50;68.30;;;;;;5032922;28;20029;-70
2021/10/26 07:11:01;;;;;;;15.77;4.95;;;11.50;69.00;;;;;;5033267;28;20112;-70
2021/10/26 07:13:27;;;;;;;20.73;6.03;;;11.40;65.90;;;;;;5033130;28;20105;-69
2021/10/26 07:15:53;;;;;;;10.23;4.85;;;11.40;65.90;;;;;;5031393;28;20083;-70
2021/10/26 07:18:19;;;;;;;12.50;5.30;;;11.40;65.70;;;;;;5032866;28;20056;-70
2021/10/26 07:20:45;;;;;;;13.75;4.40;;;11.60;76.30;;;;;;5032197;28;20028;-71
2021/10/26 07:23:11;;;;;;;7.43;4.35;;;11.60;78.40;;;;;;5032887;28;20021;-71
2021/10/26 07:25:36;;;;;;;8.98;4.38;;;11.60;80.30;;;;;;5032817;28;20394;-71
2021/10/26 07:28:02;;;;;;;9.40;4.47;;;11.60;80.20;;;;;;5032500;28;20025;-70
2021/10/26 07:30:33;;;;;;;10.88;4.22;;;11.70;72.90;;;;;;5032638;28;20032;-71
2021/10/26 07:33:02;;;;;;;11.10;4.22;;;;;;;;;;5032710;28;20013;-71
2021/10/26 07:35:43;;;;;;;9.38;3.70;;;11.90;86.00;;;;;;5032728;28;20029;-71
2021/10/26 07:38:12;;;;;;;10.35;4.20;;;11.70;86.90;;;;;;5032630;28;20132;-71
2021/10/26 07:40:38;;;;;;;9.70;4.00;;;11.80;73.00;;;;;;5032918;28;20037;-70
2021/10/26 07:43:03;;;;;;;7.80;4.03;;;11.80;86.10;;;;;;5032533;28;20095;-71
2021/10/26 07:45:29;;;;;;;9.05;4.00;;;11.80;72.80;;;;;;5032930;28;20042;-71
2021/10/26 07:47:55;;;;;;;7.50;4.28;;;11.80;69.80;;;;;;5032871;28;20018;-71
2021/10/26 07:50:21;;;;;;;7.90;4.25;;;11.70;63.70;;;;;;5029719;28;20026;-69
2021/10/26 07:52:48;;;;;;;11.85;3.85;;;11.70;63.80;;;;;;5029529;28;20495;-70
2021/10/26 07:55:14;;;;;;;9.07;5.10;;;11.70;63.90;;;;;;5030652;28;20013;-71
2021/10/26 07:57:40;;;;;;;11.73;5.60;;;11.80;64.70;;;;;;5032118;28;20397;-69
2021/10/26 08:00:07;;;;;;;14.73;6.05;;;11.90;71.10;;;;;;5032552;28;20025;-69
2021/10/26 08:02:33;;;;;;;17.90;6.40;;;11.80;65.50;;;;;;5032785;28;20112;-70
2021/10/26 08:04:59;;;;;;;14.52;6.65;;;11.80;65.90;;;;;;5032569;28;20160;-69
2021/10/26 08:07:26;;;;;;;18.73;6.60;;;11.90;67.90;;;;;;5032489;28;20470;-70
2021/10/26 08:09:53;;;;;;;17.20;6.50;;;11.90;65.80;;;;;;5032674;28;20026;-70
2021/10/26 08:12:24;;;;;;;18.10;6.55;;;11.80;65.90;;;;;;5032332;28;20029;-69
2021/10/26 08:14:51;;;;;;;15.38;6.00;;;;;;;;;;5032788;28;20548;-70
2021/10/26 08:17:18;;;;;;;15.27;5.45;;;11.80;66.90;;;;;;5030019;28;20025;-71
2021/10/26 08:19:45;;;;;;;12.77;4.82;;;;;;;;;;5030032;28;20099;-71
2021/10/26 08:22:16;;;;;;;11.88;4.63;;;12.00;76.70;;;;;;5032246;28;20026;-71
2021/10/26 08:24:52;;;;;;;8.88;4.30;;;12.00;70.40;;;;;;5032635;28;20033;-71
2021/10/26 08:27:20;;;;;;;9.02;4.70;;;12.00;74.00;;;;;;5032572;28;20075;-71
2021/10/26 08:30:36;;;;;;;9.82;5.18;;;12.10;76.10;;;;;;5032472;28;20029;-71
2021/10/26 08:32:47;;;;;;;12.32;5.55;;;12.10;75.70;;;;;;5027614;28;20029;-70
2021/10/26 08:35:23;;;;;;;16.77;4.93;;;12.10;79.80;;;;;;5036059;28;20021;-70
2021/10/26 08:37:50;;;;;;;10.20;4.22;;;12.10;78.80;;;;;;5036029;28;20083;-71
2021/10/26 08:40:17;;;;;;;8.85;4.72;;;12.10;75.60;;;;;;5036099;28;20060;-71
2021/10/26 08:42:47;;;;;;;11.57;4.70;;;12.20;77.70;;;;;;5034995;28;20029;-72
2021/10/26 08:45:15;;;;;;;13.00;5.68;;;12.20;76.80;;;;;;5035329;28;20112;-71
2021/10/26 08:47:44;;;;;;;19.60;6.95;;;12.20;69.70;;;;;;5035909;28;20029;-72
2021/10/26 08:50:10;;;;;;;27.83;5.88;;;;;;;;;;5035322;28;20052;-71
2021/10/26 08:52:36;;;;;;;31.88;6.47;;;;;;;;;;5036261;28;20398;-72
2021/10/26 08:55:05;;;;;;;31.75;7.35;;;;;;;;;;5035964;28;20049;-71
2021/10/26 08:57:31;;;;;;;18.42;5.28;;;12.20;94.70;;;;;;5035559;28;20022;-71
2021/10/26 09:00:05;;;;;;;10.68;4.38;;;12.30;77.70;;;;;;5035741;28;20424;-71
2021/10/26 09:02:36;;;;;;;7.57;4.15;;;12.40;72.80;;;;;;5035758;28;20037;-71
2021/10/26 09:05:18;;;;;;;10.15;4.45;;;12.40;65.80;;;;;;5035639;28;20077;-70
2021/10/26 09:08:05;;;;;;;9.55;4.32;;;12.30;63.00;;;;;;5035715;28;20044;-71
2021/10/26 09:10:32;;;;;;;9.68;4.13;;;12.40;71.70;;;;;;5035824;28;20022;-71
2021/10/26 09:18:34;;;;;;;15.43;4.75;;;12.40;62.90;;;;;;5035698;28;20037;-71
2021/10/26 09:21:00;;;;;;;10.10;4.43;;;12.60;64.20;;;;;;5035329;28;20165;-71
2021/10/26 09:23:27;;;;;;;9.10;4.10;;;;;;;;;;5035577;28;20091;-71
2021/10/26 09:26:01;;;;;;;8.20;3.95;;;12.60;94.70;;;;;;5035373;28;20031;-71
2021/10/26 09:28:27;;;;;;;9.93;4.30;;;12.50;62.30;;;;;;5035280;28;20120;-70
2021/10/26 09:31:02;;;;;;;15.73;6.57;;;12.60;62.20;;;;;;5035275;28;20036;-70
2021/10/26 09:33:33;;;;;;;8.23;4.72;;;12.70;78.10;;;;;;5034929;28;20029;-71
2021/10/26 09:36:22;;;;;;;8.52;4.78;;;12.80;79.80;;;;;;5035008;28;20025;-73
2021/10/26 09:39:15;;;;;;;10.75;5.15;;;12.80;75.00;;;;;;5035140;28;20025;-71
2021/10/26 09:41:53;;;;;;;13.52;6.20;;;12.80;78.40;;;;;;5034254;28;20041;-71
2021/10/26 09:44:30;;;;;;;14.23;6.32;;;;;;;;;;5033701;28;20037;-71
2021/10/26 09:47:19;;;;;;;15.00;6.45;;;12.80;94.00;;;;;;5034756;28;20057;-72
2021/10/26 09:49:54;;;;;;;13.10;6.45;;;13.00;81.90;;;;;;5034769;28;20036;-71
2021/10/26 09:52:26;;;;;;;16.13;5.60;;;13.00;67.60;;;;;;5034755;28;20105;-71
2021/10/26 09:54:52;;;;;;;;;;;;;;;;;;5034832;28;20040;-72
2021/10/26 09:57:18;;;;;;;13.73;6.00;;;;;;;;;;5034726;28;19906;-71
2021/10/26 09:59:47;;;;;;;11.90;5.90;;;13.10;91.60;;;;;;5034939;28;20587;-71
2021/10/26 10:02:21;;;;;;;9.82;5.93;;;;;;;;;;5034479;28;20527;-71
2021/10/26 10:04:47;;;;;;;14.50;6.15;;;;;;;;;;5034435;28;20044;-71
2021/10/26 10:07:14;;;;;;;12.80;6.32;;;;;;;;;;5034251;28;20018;-71
2021/10/26 10:09:43;;;;;;;18.08;6.45;;;13.20;91.10;;;;;;5034403;28;20025;-71
2021/10/26 10:12:09;;;;;;;17.58;6.18;;;13.20;63.70;;;;;;5034258;28;20025;-71
2021/10/26 10:14:37;;;;;;;15.20;4.55;;;13.30;66.10;;;;;;5034140;28;20029;-72
2021/10/26 10:17:13;;;;;;;6.32;3.60;;;;;;;;;;5034582;28;20051;-72
2021/10/26 10:19:40;;;;;;;11.20;4.07;;;;;;;;;;5033158;28;20033;-72
2021/10/26 10:22:08;;;;;;;9.10;4.10;;;13.40;84.50;;;;;;5034206;28;20017;-72
2021/10/26 10:24:39;;;;;;;7.00;4.00;;;13.40;62.60;;;;;;5034223;28;20029;-71
2021/10/26 10:27:07;;;;;;;8.85;3.60;;;13.50;67.10;;;;;;5034142;28;20022;-71
2021/10/26 10:29:38;;;;;;;8.10;3.88;;;13.40;61.50;;;;;;5033924;28;20033;-71
2021/10/26 10:32:06;;;;;;;8.45;3.20;;;13.60;63.80;;;;;;5033987;28;20100;-72
2021/10/26 10:34:33;;;;;;;7.80;3.22;;;13.60;65.50;;;;;;5033921;28;20166;-72
2021/10/26 10:37:00;;;;;;;7.43;3.00;;;13.50;61.10;;;;;;5033665;28;20032;-72
2021/10/26 10:39:33;;;;;;;9.30;3.40;;;13.60;66.50;;;;;;5033683;28;20455;-72
2021/10/26 10:42:14;;;;;;;4.95;3.17;;;13.70;75.30;;;;;;5033924;28;20049;-72
2021/10/26 10:44:41;;;;;;;7.00;3.67;;;13.80;80.10;;;;;;5033819;28;20034;-72
2021/10/26 10:47:21;;;;;;;10.77;4.65;;;13.80;80.10;;;;;;5033639;28;20018;-72
2021/10/26 10:49:48;;;;;;;11.90;4.22;;;13.70;60.40;;;;;;5033702;28;20025;-72
2021/10/26 10:52:20;;;;;;;11.80;4.40;;;13.90;69.50;;;;;;5032320;28;20021;-72
2021/10/26 10:54:53;;;;;;;8.55;3.95;;;14.00;78.70;;;;;;5033226;28;20018;-72
2021/10/26 10:57:34;;;;;;;6.95;3.58;;;;;;;;;;5033779;28;20145;-72
2021/10/26 11:00:03;;;;;;;7.07;3.60;;;;;;;;;;5033841;28;20022;-72
2021/10/26 11:02:47;;;;;;;9.10;3.25;;;14.00;72.40;;;;;;5033478;28;20061;-72
2021/10/26 11:05:42;;;;;;;7.43;3.30;;;;;;;;;;5033346;28;20037;-73
2021/10/26 11:08:12;;;;;;;5.97;3.50;;;;;;;;;;5032257;28;20050;-74
2021/10/26 11:10:52;;;;;;;9.57;3.70;;;14.00;62.90;;;;;;5033650;28;20045;-74
2021/10/26 11:13:20;;;;;;;6.68;3.45;;;14.00;61.80;;;;;;5033404;28;20477;-73
2021/10/26 11:15:49;;;;;;;8.75;3.40;;;14.00;61.80;;;;;;5033196;28;20026;-72
2021/10/26 11:18:33;;;;;;;5.75;3.20;;;14.00;62.10;;;;;;5033137;28;20022;-73
2021/10/26 11:21:00;;;;;;;10.55;3.90;;;14.00;62.40;;;;;;5033476;28;20134;-72
2021/10/26 11:23:48;;;;;;;7.65;3.30;;;14.00;65.80;;;;;;5030593;28;20071;-73
2021/10/26 11:26:35;;;;;;;6.10;3.28;;;14.10;68.90;;;;;;5030473;28;20037;-71
2021/10/26 11:29:04;;;;;;;7.32;3.50;;;14.10;68.00;;;;;;5031779;28;20017;-71
2021/10/26 11:31:40;;;;;;;7.38;2.90;;;14.10;65.90;;;;;;5033288;28;20369;-71
2021/10/26 11:34:15;;;;;;;7.20;3.10;;;14.10;64.10;;;;;;5033077;28;20170;-71
2021/10/26 11:36:42;;;;;;;6.00;3.00;;;14.20;68.10;;;;;;5033370;28;20104;-71
2021/10/26 11:39:14;;;;;;;6.47;2.95;;;14.10;64.70;;;;;;5032749;28;20053;-73
2021/10/26 11:41:42;;;;;;;5.78;2.97;;;14.20;64.80;;;;;;5033095;28;20022;-71
2021/10/26 11:44:11;;;;;;;10.02;3.20;;;14.20;70.60;;;;;;5032840;28;20046;-71
2021/10/26 11:46:46;;;;;;;7.18;3.15;;;14.20;69.60;;;;;;5032383;28;20437;-71
2021/10/26 11:49:24;;;;;;;5.82;2.80;;;14.20;67.50;;;;;;5032561;28;20552;-71
2021/10/26 11:51:58;;;;;;;5.60;2.80;;;14.20;68.30;;;;;;5032658;28;20029;-71
2021/10/26 11:54:40;;;;;;;4.97;2.70;;;14.20;67.70;;;;;;5032838;28;20022;-71
2021/10/26 11:57:11;;;;;;;5.03;2.78;;;14.20;81.30;;;;;;5032589;28;20478;-71
2021/10/26 11:59:42;;;;;;;5.10;2.63;;;14.20;71.60;;;;;;5032174;28;20425;-71
2021/10/26 12:02:18;;;;;;;6.65;3.10;;;14.30;66.00;;;;;;5032606;28;20426;-71
2021/10/26 12:04:48;;;;;;;5.10;2.78;;;14.30;61.20;;;;;;5032868;28;20436;-71
2021/10/26 12:07:16;;;;;;;6.22;2.70;;;14.30;67.60;;;;;;5034624;28;20037;-71
2021/10/26 12:09:47;;;;;;;5.78;2.60;;;14.30;67.60;;;;;;5036529;28;20033;-71
2021/10/26 12:12:17;;;;;;;5.05;2.90;;;14.30;66.60;;;;;;5036741;28;20029;-71
2021/10/26 12:14:46;;;;;;;3.90;2.55;;;14.40;66.30;;;;;;5036312;28;20405;-71
2021/10/26 12:17:32;;;;;;;4.53;2.80;;;14.40;66.20;;;;;;5036455;28;20104;-71
2021/10/26 12:19:58;;;;;;;7.30;2.95;;;14.40;64.70;;;;;;5035974;28;20044;-71
2021/10/26 12:22:43;;;;;;;4.20;2.63;;;14.40;64.60;;;;;;5034122;28;20029;-73
2021/10/26 12:25:20;;;;;;;4.53;2.60;;;14.40;64.50;;;;;;5030782;28;20037;-72
2021/10/26 12:28:00;;;;;;;7.00;2.90;;;14.40;64.00;;;;;;5048906;28;20021;-72
2021/10/26 12:30:29;;;;;;;5.18;2.88;;;14.40;66.40;;;;;;5055854;28;20033;-72
2021/10/26 12:33:05;;;;;;;5.05;2.72;;;14.50;66.90;;;;;;5055478;28;20094;-72
2021/10/26 12:35:41;;;;;;;4.03;2.75;;;14.50;74.50;;;;;;5055729;28;20043;-72
2021/10/26 12:38:26;;;;;;;4.55;2.72;;;;;;;;;;5052684;28;20056;-71
2021/10/26 12:40:54;;;;;;;5.50;2.70;;;;;;;;;;5034497;28;20029;-73
2021/10/26 12:43:23;;;;;;;7.50;3.10;;;;;;;;;;5035668;28;20504;-73
2021/10/26 12:45:50;;;;;;;5.43;3.05;;;;;;;;;;5035798;28;20026;-73
2021/10/26 12:48:18;;;;;;;7.55;2.92;;;;;;;;;;5035556;28;20045;-72
2021/10/26 12:50:52;;;;;;;6.50;3.08;;;;;;;;;;5035863;28;20022;-72
2021/10/26 12:53:20;;;;;;;7.82;3.80;;;;;;;;;;5035088;28;20021;-73
2021/10/26 12:55:52;;;;;;;8.13;3.40;;;14.80;72.20;;;;;;5035327;28;20029;-72
2021/10/26 12:58:51;;;;;;;6.45;3.47;;;;;;;;;;5035466;28;20021;-73
2021/10/26 13:01:16;;;;;;;6.10;3.13;;;14.80;73.40;;;;;;5012582;28;20498;-72
2021/10/26 13:03:56;;;;;;;5.50;3.35;;;14.90;60.90;;;;;;5035295;28;20032;-73
2021/10/26 13:06:28;;;;;;;11.85;3.65;;;14.90;63.40;;;;;;5035280;28;20025;-72